createdAt,value
2018-07-01T00:00:10.752Z,91.50
2018-07-01T00:01:16.149Z,92.00
2018-07-01T00:02:21.642Z,91.80
2018-07-01T00:03:27.090Z,91.80
2018-07-01T00:04:32.493Z,92.30
2018-07-01T00:05:37.899Z,92.10
2018-07-01T00:06:43.292Z,92.10
2018-07-01T00:07:48.865Z,92.50
2018-07-01T00:08:54.446Z,92.30
2018-07-01T00:10:00.540Z,92.50
2018-07-01T00:11:06.054Z,92.50
2018-07-01T00:12:11.922Z,92.50
2018-07-01T00:13:17.298Z,92.70
2018-07-01T00:14:22.925Z,92.80
2018-07-01T00:15:28.337Z,93.00
2018-07-01T00:16:33.760Z,92.90
2018-07-01T00:17:39.324Z,92.80
2018-07-01T00:18:44.750Z,93.00
2018-07-01T00:19:50.372Z,93.20
2018-07-01T00:20:55.854Z,93.20
2018-07-01T00:22:01.294Z,93.50
2018-07-01T00:23:07.769Z,93.50
2018-07-01T00:24:13.477Z,93.60
2018-07-01T00:25:18.936Z,93.60
2018-07-01T00:26:24.449Z,93.70
2018-07-01T00:27:30.010Z,94.20
2018-07-01T00:28:35.837Z,93.90
2018-07-01T00:29:41.248Z,94.10
2018-07-01T00:30:46.737Z,94.20
2018-07-01T00:31:52.398Z,94.30
2018-07-01T00:32:57.931Z,94.50
2018-07-01T00:34:03.360Z,94.40
2018-07-01T00:35:08.810Z,94.70
2018-07-01T00:36:14.236Z,95.00
2018-07-01T00:37:19.689Z,95.00
2018-07-01T00:38:25.057Z,95.10
2018-07-01T00:39:30.849Z,95.10
2018-07-01T00:40:36.330Z,95.30
2018-07-01T00:42:46.747Z,95.90
2018-07-01T00:43:52.249Z,95.70
2018-07-01T00:44:57.947Z,95.90
2018-07-01T00:46:03.410Z,96.00
2018-07-01T00:47:08.957Z,96.00
2018-07-01T00:48:14.601Z,96.10
2018-07-01T00:49:20.000Z,96.30
2018-07-01T00:50:25.558Z,96.40
2018-07-01T00:51:31.112Z,96.40
2018-07-01T00:52:36.614Z,96.40
2018-07-01T00:53:42.084Z,96.60
2018-07-01T00:54:47.497Z,96.70
2018-07-01T00:55:53.109Z,96.90
2018-07-01T00:56:58.532Z,97.00
2018-07-01T00:58:04.013Z,97.10
2018-07-01T00:59:09.803Z,97.20
2018-07-01T01:00:15.297Z,97.30
2018-07-01T01:01:20.781Z,97.60
2018-07-01T01:02:26.241Z,97.60
2018-07-01T01:03:31.637Z,97.70
2018-07-01T01:04:37.072Z,98.00
2018-07-01T01:05:42.463Z,98.10
2018-07-01T01:06:47.869Z,98.20
2018-07-01T01:07:53.315Z,98.20
2018-07-01T01:08:58.769Z,98.30
2018-07-01T01:10:04.612Z,98.30
2018-07-01T01:11:10.066Z,98.50
2018-07-01T01:12:15.501Z,98.50
2018-07-01T01:13:20.925Z,98.60
2018-07-01T01:14:26.324Z,98.90
2018-07-01T01:15:31.841Z,99.10
2018-07-01T01:16:38.132Z,99.20
2018-07-01T01:17:43.593Z,99.40
2018-07-01T01:18:49.026Z,99.80
2018-07-01T01:19:54.477Z,99.80
2018-07-01T01:20:59.908Z,99.80
2018-07-01T01:22:05.415Z,99.80
2018-07-01T01:23:10.913Z,99.90
2018-07-01T01:24:16.353Z,99.90
2018-07-01T01:25:21.778Z,99.90
2018-07-01T01:26:27.318Z,99.90
2018-07-01T01:27:32.721Z,99.90
2018-07-01T01:28:38.165Z,99.90
2018-07-01T01:29:43.554Z,99.90
2018-07-01T01:30:49.002Z,99.90
2018-07-01T01:31:54.627Z,99.90
2018-07-01T01:33:00.115Z,99.90
2018-07-01T01:34:06.083Z,99.90
2018-07-01T01:35:11.657Z,99.90
2018-07-01T01:36:17.168Z,99.90
2018-07-01T01:37:22.634Z,99.90
2018-07-01T01:38:30.097Z,99.90
2018-07-01T01:39:38.297Z,99.90
2018-07-01T01:40:47.725Z,99.90
2018-07-01T01:42:55.936Z,99.90
2018-07-01T01:44:06.651Z,99.90
2018-07-01T01:46:16.942Z,99.90
2018-07-01T01:48:26.255Z,99.90
2018-07-01T01:49:38.705Z,99.90
2018-07-01T01:50:50.080Z,99.90
2018-07-01T01:52:08.602Z,99.90
2018-07-01T01:53:21.340Z,99.90
2018-07-01T01:54:34.597Z,99.90
2018-07-01T01:55:49.238Z,99.90
2018-07-01T01:57:03.429Z,99.90
2018-07-01T01:59:11.993Z,99.90
2018-07-01T02:00:21.207Z,99.90
2018-07-01T02:01:35.809Z,99.90
2018-07-01T02:02:53.965Z,99.90
2018-07-01T02:04:39.041Z,99.90
2018-07-01T02:05:48.170Z,99.90
2018-07-01T02:06:55.632Z,99.90
2018-07-01T02:08:06.734Z,99.90
2018-07-01T02:09:18.326Z,99.90
2018-07-01T02:10:23.772Z,99.90
2018-07-01T02:11:30.542Z,99.90
2018-07-01T02:12:35.997Z,99.90
2018-07-01T02:13:44.353Z,99.90
2018-07-01T02:14:53.920Z,99.90
2018-07-01T02:16:02.485Z,99.90
2018-07-01T02:17:10.820Z,99.90
2018-07-01T02:18:16.356Z,99.90
2018-07-01T02:19:21.820Z,99.90
2018-07-01T02:20:31.259Z,99.90
2018-07-01T02:21:36.696Z,99.90
2018-07-01T02:22:45.943Z,99.90
2018-07-01T02:23:54.180Z,99.90
2018-07-01T02:25:00.956Z,99.90
2018-07-01T02:26:06.516Z,99.90
2018-07-01T02:27:11.980Z,99.90
2018-07-01T02:28:17.472Z,99.90
2018-07-01T02:29:23.032Z,99.90
2018-07-01T02:30:28.496Z,99.90
2018-07-01T02:31:33.943Z,99.90
2018-07-01T02:32:39.521Z,99.90
2018-07-01T02:33:44.942Z,99.90
2018-07-01T02:34:50.377Z,99.90
2018-07-01T02:35:55.793Z,99.90
2018-07-01T02:37:01.213Z,99.90
2018-07-01T02:38:06.879Z,99.90
2018-07-01T02:39:12.504Z,99.90
2018-07-01T02:40:17.986Z,99.90
2018-07-01T02:41:23.454Z,99.90
2018-07-01T02:42:28.865Z,99.90
2018-07-01T02:43:34.782Z,99.90
2018-07-01T02:44:40.170Z,99.90
2018-07-01T02:45:45.580Z,99.90
2018-07-01T02:46:51.027Z,99.90
2018-07-01T02:47:56.469Z,99.90
2018-07-01T02:49:02.248Z,99.90
2018-07-01T02:50:08.175Z,99.90
2018-07-01T02:51:13.614Z,99.90
2018-07-01T02:52:19.033Z,99.90
2018-07-01T02:53:24.428Z,99.90
2018-07-01T02:54:30.031Z,99.90
2018-07-01T02:55:35.453Z,99.90
2018-07-01T02:56:40.893Z,99.90
2018-07-01T02:57:46.464Z,99.90
2018-07-01T02:58:51.869Z,99.90
2018-07-01T02:59:57.306Z,99.90
2018-07-01T03:01:02.777Z,99.90
2018-07-01T03:02:08.325Z,99.90
2018-07-01T03:03:13.737Z,99.90
2018-07-01T03:04:19.132Z,99.90
2018-07-01T03:05:24.620Z,99.90
2018-07-01T03:06:30.196Z,99.90
2018-07-01T03:07:35.589Z,99.90
2018-07-01T03:08:41.008Z,99.90
2018-07-01T03:09:46.390Z,99.90
2018-07-01T03:10:52.789Z,99.90
2018-07-01T03:11:58.283Z,99.90
2018-07-01T03:13:03.693Z,99.90
2018-07-01T03:14:09.081Z,99.90
2018-07-01T03:15:14.474Z,99.90
2018-07-01T03:16:19.953Z,99.90
2018-07-01T03:17:25.380Z,99.90
2018-07-01T03:18:31.134Z,99.90
2018-07-01T03:19:36.550Z,99.90
2018-07-01T03:20:42.393Z,99.90
2018-07-01T03:21:47.809Z,99.90
2018-07-01T03:22:53.290Z,99.90
2018-07-01T03:23:58.781Z,99.90
2018-07-01T03:25:04.265Z,99.90
2018-07-01T03:26:09.820Z,99.90
2018-07-01T03:27:15.208Z,99.90
2018-07-01T03:28:21.180Z,99.90
2018-07-01T03:29:26.585Z,99.90
2018-07-01T03:30:31.986Z,99.90
2018-07-01T03:31:37.462Z,99.90
2018-07-01T03:32:42.961Z,99.90
2018-07-01T03:33:48.509Z,99.90
2018-07-01T03:34:54.069Z,99.90
2018-07-01T03:35:59.474Z,99.90
2018-07-01T03:37:05.038Z,99.90
2018-07-01T03:38:10.488Z,99.90
2018-07-01T03:39:15.867Z,99.90
2018-07-01T03:40:21.380Z,99.90
2018-07-01T03:41:26.972Z,99.90
2018-07-01T03:42:32.417Z,99.90
2018-07-01T03:43:38.020Z,99.90
2018-07-01T03:44:43.518Z,99.90
2018-07-01T03:45:48.929Z,99.90
2018-07-01T03:46:54.469Z,99.90
2018-07-01T03:47:59.987Z,99.90
2018-07-01T03:49:05.685Z,99.90
2018-07-01T03:50:11.096Z,99.90
2018-07-01T03:51:16.549Z,99.90
2018-07-01T03:52:22.182Z,99.90
2018-07-01T03:53:27.574Z,99.90
2018-07-01T03:54:32.957Z,99.90
2018-07-01T03:55:38.353Z,99.90
2018-07-01T03:56:43.760Z,99.90
2018-07-01T03:57:49.297Z,99.90
2018-07-01T03:58:54.760Z,99.90
2018-07-01T04:00:00.276Z,99.90
2018-07-01T04:01:05.718Z,99.90
2018-07-01T04:02:11.196Z,99.90
2018-07-01T04:03:16.668Z,99.90
2018-07-01T04:04:22.139Z,99.90
2018-07-01T04:05:27.572Z,99.90
2018-07-01T04:06:33.025Z,99.90
2018-07-01T04:07:38.473Z,99.90
2018-07-01T04:08:43.925Z,99.90
2018-07-01T04:09:49.341Z,99.90
2018-07-01T04:10:54.905Z,99.90
2018-07-01T04:12:00.369Z,99.90
2018-07-01T04:13:05.832Z,99.90
2018-07-01T04:14:11.301Z,99.90
2018-07-01T04:15:16.741Z,99.90
2018-07-01T04:16:22.280Z,99.90
2018-07-01T04:17:27.706Z,99.90
2018-07-01T04:18:33.093Z,99.90
2018-07-01T04:19:39.372Z,99.90
2018-07-01T04:20:44.765Z,99.90
2018-07-01T04:21:50.209Z,99.90
2018-07-01T04:22:55.588Z,99.90
2018-07-01T04:24:01.046Z,99.90
2018-07-01T04:25:06.627Z,99.90
2018-07-01T04:26:12.054Z,99.90
2018-07-01T04:27:17.577Z,99.90
2018-07-01T04:28:22.936Z,99.90
2018-07-01T04:29:28.308Z,99.90
2018-07-01T04:30:33.758Z,99.90
2018-07-01T04:31:39.154Z,99.90
2018-07-01T04:32:44.584Z,99.90
2018-07-01T04:33:50.007Z,99.90
2018-07-01T04:34:55.453Z,99.90
2018-07-01T04:36:00.850Z,99.90
2018-07-01T04:37:06.648Z,99.90
2018-07-01T04:38:12.048Z,99.90
2018-07-01T04:39:17.460Z,99.90
2018-07-01T04:40:22.942Z,99.90
2018-07-01T04:41:28.433Z,99.90
2018-07-01T04:42:40.542Z,99.90
2018-07-01T04:43:45.970Z,99.30
2018-07-01T04:44:51.394Z,98.70
2018-07-01T04:45:56.901Z,98.40
2018-07-01T04:47:02.301Z,97.90
2018-07-01T04:48:07.690Z,97.40
2018-07-01T04:49:13.325Z,97.40
2018-07-01T04:50:18.793Z,96.90
2018-07-01T04:51:24.662Z,96.70
2018-07-01T04:52:30.076Z,96.40
2018-07-01T04:53:35.521Z,96.30
2018-07-01T04:54:40.908Z,95.90
2018-07-01T04:55:46.292Z,95.70
2018-07-01T04:56:51.929Z,95.60
2018-07-01T04:57:57.572Z,95.50
2018-07-01T04:59:03.025Z,95.00
2018-07-01T05:00:08.471Z,94.80
2018-07-01T05:01:13.962Z,94.30
2018-07-01T05:02:19.363Z,94.30
2018-07-01T05:03:24.767Z,94.10
2018-07-01T05:04:30.153Z,93.90
2018-07-01T05:05:35.577Z,93.80
2018-07-01T05:06:40.991Z,93.50
2018-07-01T05:07:46.468Z,93.20
2018-07-01T05:08:51.945Z,93.10
2018-07-01T05:09:57.319Z,93.30
2018-07-01T05:11:02.752Z,93.60
2018-07-01T05:12:08.172Z,93.80
2018-07-01T05:13:13.671Z,94.50
2018-07-01T05:14:19.089Z,95.40
2018-07-01T05:15:24.533Z,96.10
2018-07-01T05:16:29.948Z,96.90
2018-07-01T05:17:35.392Z,97.30
2018-07-01T05:18:40.815Z,98.30
2018-07-01T05:19:47.197Z,99.00
2018-07-01T05:20:52.632Z,99.90
2018-07-01T05:21:58.073Z,99.90
2018-07-01T05:23:03.481Z,99.90
2018-07-01T05:24:08.980Z,99.90
2018-07-01T05:25:14.593Z,99.90
2018-07-01T05:26:20.045Z,99.90
2018-07-01T05:27:25.449Z,99.90
2018-07-01T05:28:30.833Z,99.90
2018-07-01T05:29:36.220Z,99.90
2018-07-01T05:30:41.693Z,99.90
2018-07-01T05:31:47.068Z,99.90
2018-07-01T05:32:52.602Z,99.90
2018-07-01T05:33:58.188Z,99.90
2018-07-01T05:35:03.704Z,99.90
2018-07-01T05:36:09.193Z,99.90
2018-07-01T05:37:14.633Z,99.90
2018-07-01T05:38:20.086Z,99.90
2018-07-01T05:39:25.545Z,99.90
2018-07-01T05:40:30.942Z,99.90
2018-07-01T05:41:36.484Z,99.90
2018-07-01T05:42:41.862Z,99.90
2018-07-01T05:43:47.233Z,99.90
2018-07-01T05:44:52.618Z,99.90
2018-07-01T05:45:58.008Z,99.90
2018-07-01T05:47:03.624Z,99.90
2018-07-01T05:48:09.164Z,99.90
2018-07-01T05:49:14.612Z,99.90
2018-07-01T05:50:19.972Z,99.90
2018-07-01T05:51:25.362Z,99.90
2018-07-01T05:52:30.769Z,99.90
2018-07-01T05:53:36.363Z,99.90
2018-07-01T05:54:41.778Z,99.90
2018-07-01T05:55:47.174Z,99.90
2018-07-01T05:56:52.648Z,99.90
2018-07-01T05:57:58.089Z,99.90
2018-07-01T05:59:03.541Z,99.90
2018-07-01T06:00:09.027Z,99.90
2018-07-01T06:01:14.447Z,99.90
2018-07-01T06:02:19.892Z,99.90
2018-07-01T06:04:30.551Z,99.90
2018-07-01T06:05:35.985Z,99.90
2018-07-01T06:06:41.400Z,99.90
2018-07-01T06:07:46.900Z,99.90
2018-07-01T06:08:52.317Z,99.90
2018-07-01T06:09:57.721Z,99.90
2018-07-01T06:11:03.161Z,99.90
2018-07-01T06:12:08.616Z,99.90
2018-07-01T06:13:14.344Z,99.90
2018-07-01T06:14:19.986Z,99.90
2018-07-01T06:15:25.412Z,99.90
2018-07-01T06:16:30.851Z,99.90
2018-07-01T06:17:36.305Z,99.90
2018-07-01T06:18:41.694Z,99.90
2018-07-01T06:19:47.089Z,99.90
2018-07-01T06:20:52.505Z,99.90
2018-07-01T06:21:57.968Z,99.90
2018-07-01T06:23:09.546Z,99.90
2018-07-01T06:24:15.019Z,99.90
2018-07-01T06:25:20.455Z,99.90
2018-07-01T06:26:25.908Z,99.90
2018-07-01T06:27:31.466Z,99.90
2018-07-01T06:28:36.877Z,99.90
2018-07-01T06:29:42.248Z,99.90
2018-07-01T06:30:47.736Z,99.90
2018-07-01T06:31:55.813Z,99.90
2018-07-01T06:33:01.329Z,99.90
2018-07-01T06:34:06.832Z,99.90
2018-07-01T06:35:12.249Z,99.90
2018-07-01T06:36:18.092Z,99.90
2018-07-01T06:37:23.556Z,99.90
2018-07-01T06:38:28.988Z,99.90
2018-07-01T06:39:34.368Z,99.90
2018-07-01T06:40:39.881Z,99.90
2018-07-01T06:41:45.493Z,99.90
2018-07-01T06:42:50.990Z,99.90
2018-07-01T06:43:59.021Z,99.90
2018-07-01T06:45:09.141Z,99.90
2018-07-01T06:46:19.036Z,99.90
2018-07-01T06:47:26.228Z,99.90
2018-07-01T06:48:34.064Z,99.20
2018-07-01T06:49:43.562Z,99.30
2018-07-01T06:50:48.981Z,99.30
2018-07-01T06:51:54.364Z,99.40
2018-07-01T06:52:59.792Z,99.30
2018-07-01T06:54:05.256Z,99.30
2018-07-01T06:55:10.673Z,99.10
2018-07-01T06:56:16.105Z,99.80
2018-07-01T06:57:21.502Z,99.00
2018-07-01T06:58:27.097Z,99.20
2018-07-01T06:59:32.527Z,99.30
2018-07-01T07:00:37.909Z,98.80
2018-07-01T07:01:43.360Z,98.50
2018-07-01T07:02:48.825Z,98.50
2018-07-01T07:03:54.639Z,98.20
2018-07-01T07:05:00.140Z,98.60
2018-07-01T07:06:05.537Z,98.50
2018-07-01T07:07:10.962Z,98.60
2018-07-01T07:08:16.337Z,97.90
2018-07-01T07:09:21.880Z,97.90
2018-07-01T07:10:27.584Z,98.30
2018-07-01T07:11:33.056Z,97.60
2018-07-01T07:12:38.472Z,97.20
2018-07-01T07:13:43.861Z,96.90
2018-07-01T07:14:49.245Z,97.00
2018-07-01T07:15:54.642Z,96.90
2018-07-01T07:17:00.105Z,96.90
2018-07-01T07:18:05.869Z,97.10
2018-07-01T07:19:11.252Z,96.70
2018-07-01T07:20:16.710Z,97.00
2018-07-01T07:21:22.084Z,96.90
2018-07-01T07:22:27.464Z,97.30
2018-07-01T07:23:33.125Z,96.20
2018-07-01T07:24:38.630Z,95.30
2018-07-01T07:25:44.293Z,95.60
2018-07-01T07:26:49.725Z,95.40
2018-07-01T07:27:55.649Z,95.30
2018-07-01T07:29:01.044Z,95.50
2018-07-01T07:30:06.744Z,95.40
2018-07-01T07:31:12.289Z,95.50
2018-07-01T07:32:17.763Z,95.50
2018-07-01T07:33:23.184Z,94.90
2018-07-01T07:34:28.884Z,93.70
2018-07-01T07:35:34.484Z,94.00
2018-07-01T07:36:40.204Z,94.10
2018-07-01T07:37:45.665Z,94.10
2018-07-01T07:38:51.108Z,94.30
2018-07-01T07:39:56.501Z,94.00
2018-07-01T07:41:02.306Z,94.00
2018-07-01T07:42:09.253Z,92.80
2018-07-01T07:43:16.456Z,91.50
2018-07-01T07:44:22.600Z,92.20
2018-07-01T07:45:28.312Z,92.80
2018-07-01T07:46:34.032Z,92.90
2018-07-01T07:47:39.552Z,93.90
2018-07-01T07:48:45.013Z,93.30
2018-07-01T07:49:50.426Z,93.40
2018-07-01T07:50:55.847Z,93.30
2018-07-01T07:52:01.317Z,92.60
2018-07-01T07:53:06.929Z,92.20
2018-07-01T07:54:12.369Z,92.60
2018-07-01T07:55:17.821Z,93.10
2018-07-01T07:56:23.261Z,92.60
2018-07-01T07:57:28.800Z,92.10
2018-07-01T07:58:34.773Z,91.60
2018-07-01T07:59:40.217Z,91.60
2018-07-01T08:01:50.757Z,90.80
2018-07-01T08:02:56.185Z,91.10
2018-07-01T08:04:01.765Z,90.20
2018-07-01T08:05:07.235Z,89.20
2018-07-01T08:06:12.611Z,89.40
2018-07-01T08:07:18.060Z,89.90
2018-07-01T08:08:23.468Z,90.20
2018-07-01T08:09:29.037Z,90.30
2018-07-01T08:10:34.488Z,89.50
2018-07-01T08:11:40.161Z,90.00
2018-07-01T08:12:45.677Z,90.30
2018-07-01T08:13:51.059Z,90.60
2018-07-01T08:14:56.577Z,89.10
2018-07-01T08:16:01.965Z,89.70
2018-07-01T08:17:07.659Z,90.20
2018-07-01T08:18:13.202Z,90.10
2018-07-01T08:19:18.616Z,87.20
2018-07-01T08:20:24.131Z,87.40
2018-07-01T08:21:29.545Z,86.80
2018-07-01T08:22:35.001Z,87.90
2018-07-01T08:23:40.538Z,87.30
2018-07-01T08:24:46.029Z,87.90
2018-07-01T08:25:51.525Z,86.30
2018-07-01T08:26:57.003Z,83.50
2018-07-01T08:28:02.433Z,83.40
2018-07-01T08:29:07.831Z,84.10
2018-07-01T08:30:13.361Z,84.80
2018-07-01T08:31:18.891Z,85.20
2018-07-01T08:32:24.404Z,83.20
2018-07-01T08:33:29.805Z,81.50
2018-07-01T08:34:35.297Z,81.70
2018-07-01T08:35:40.714Z,79.50
2018-07-01T08:36:46.113Z,78.00
2018-07-01T08:37:51.585Z,77.80
2018-07-01T08:38:57.090Z,78.10
2018-07-01T08:40:02.511Z,77.80
2018-07-01T08:41:08.132Z,77.70
2018-07-01T08:42:26.414Z,77.60
2018-07-01T08:43:31.923Z,76.30
2018-07-01T08:44:37.305Z,76.80
2018-07-01T08:45:42.780Z,77.20
2018-07-01T08:46:48.236Z,77.50
2018-07-01T08:47:53.657Z,78.10
2018-07-01T08:49:01.836Z,77.60
2018-07-01T08:50:08.680Z,77.90
2018-07-01T08:51:14.076Z,78.00
2018-07-01T08:52:19.615Z,78.30
2018-07-01T08:53:24.996Z,78.10
2018-07-01T08:54:30.392Z,78.10
2018-07-01T08:55:36.333Z,77.10
2018-07-01T08:56:41.741Z,77.10
2018-07-01T08:57:47.146Z,77.30
2018-07-01T08:58:52.534Z,77.70
2018-07-01T08:59:57.970Z,77.60
2018-07-01T09:01:03.535Z,78.00
2018-07-01T09:02:08.945Z,77.90
2018-07-01T09:03:14.373Z,76.00
2018-07-01T09:04:19.777Z,74.60
2018-07-01T09:05:25.201Z,75.40
2018-07-01T09:06:30.650Z,75.00
2018-07-01T09:07:36.077Z,73.60
2018-07-01T09:08:41.627Z,72.90
2018-07-01T09:09:47.381Z,73.60
2018-07-01T09:10:52.784Z,72.00
2018-07-01T09:11:58.440Z,72.80
2018-07-01T09:13:03.910Z,72.90
2018-07-01T09:14:09.358Z,73.70
2018-07-01T09:15:14.869Z,74.20
2018-07-01T09:16:20.244Z,74.80
2018-07-01T09:17:26.201Z,74.90
2018-07-01T09:18:31.602Z,74.30
2018-07-01T09:19:37.106Z,73.10
2018-07-01T09:20:42.533Z,74.00
2018-07-01T09:21:47.916Z,72.30
2018-07-01T09:22:53.864Z,73.20
2018-07-01T09:23:59.327Z,72.00
2018-07-01T09:25:06.326Z,71.60
2018-07-01T09:26:11.759Z,72.70
2018-07-01T09:27:17.253Z,73.70
2018-07-01T09:28:22.996Z,75.10
2018-07-01T09:29:28.381Z,72.30
2018-07-01T09:30:33.820Z,72.40
2018-07-01T09:31:39.289Z,72.70
2018-07-01T09:32:44.687Z,73.10
2018-07-01T09:33:50.332Z,71.30
2018-07-01T09:34:55.752Z,71.70
2018-07-01T09:36:01.138Z,70.40
2018-07-01T09:37:06.792Z,69.90
2018-07-01T09:38:12.320Z,70.90
2018-07-01T09:39:18.884Z,69.50
2018-07-01T09:40:24.296Z,70.30
2018-07-01T09:41:29.732Z,69.00
2018-07-01T09:42:35.193Z,69.20
2018-07-01T09:43:40.600Z,69.00
2018-07-01T09:44:46.070Z,69.00
2018-07-01T09:45:51.444Z,69.40
2018-07-01T09:46:56.866Z,68.10
2018-07-01T09:48:02.419Z,70.30
2018-07-01T09:49:08.141Z,69.40
2018-07-01T09:50:13.585Z,69.70
2018-07-01T09:51:19.093Z,70.10
2018-07-01T09:52:24.464Z,69.70
2018-07-01T09:53:30.100Z,69.40
2018-07-01T09:54:35.508Z,69.40
2018-07-01T09:55:40.854Z,69.90
2018-07-01T09:56:46.339Z,69.80
2018-07-01T09:58:56.968Z,70.20
2018-07-01T10:00:02.381Z,68.90
2018-07-01T10:01:07.956Z,69.80
2018-07-01T10:02:13.275Z,70.80
2018-07-01T10:03:18.646Z,70.60
2018-07-01T10:04:24.114Z,70.50
2018-07-01T10:05:29.495Z,70.40
2018-07-01T10:06:34.905Z,70.80
2018-07-01T10:07:40.399Z,69.40
2018-07-01T10:08:45.809Z,70.00
2018-07-01T10:09:51.258Z,71.50
2018-07-01T10:10:56.889Z,71.90
2018-07-01T10:12:02.460Z,71.50
2018-07-01T10:13:07.843Z,71.40
2018-07-01T10:14:13.293Z,72.50
2018-07-01T10:15:18.681Z,69.90
2018-07-01T10:16:24.399Z,69.40
2018-07-01T10:17:29.793Z,69.60
2018-07-01T10:18:35.184Z,69.30
2018-07-01T10:19:41.050Z,69.00
2018-07-01T10:20:46.506Z,68.80
2018-07-01T10:21:52.304Z,69.60
2018-07-01T10:22:57.697Z,68.10
2018-07-01T10:24:03.122Z,68.70
2018-07-01T10:25:08.685Z,69.30
2018-07-01T10:26:14.113Z,68.50
2018-07-01T10:27:19.822Z,69.30
2018-07-01T10:28:25.287Z,69.30
2018-07-01T10:29:30.717Z,69.10
2018-07-01T10:30:36.154Z,67.70
2018-07-01T10:31:42.421Z,68.00
2018-07-01T10:32:48.262Z,68.40
2018-07-01T10:33:53.678Z,68.10
2018-07-01T10:34:59.158Z,67.30
2018-07-01T10:36:04.710Z,67.80
2018-07-01T10:38:15.317Z,68.10
2018-07-01T10:39:20.725Z,69.00
2018-07-01T10:40:26.184Z,69.80
2018-07-01T10:41:31.593Z,70.00
2018-07-01T10:42:36.998Z,69.00
2018-07-01T10:43:42.457Z,69.20
2018-07-01T10:44:47.850Z,68.90
2018-07-01T10:45:53.412Z,69.20
2018-07-01T10:46:58.862Z,67.50
2018-07-01T10:48:04.509Z,66.90
2018-07-01T10:49:09.961Z,66.60
2018-07-01T10:50:15.385Z,65.20
2018-07-01T10:51:20.997Z,64.80
2018-07-01T10:52:26.493Z,63.90
2018-07-01T10:53:31.992Z,63.40
2018-07-01T10:54:37.443Z,64.50
2018-07-01T10:55:42.906Z,63.50
2018-07-01T10:56:48.360Z,63.90
2018-07-01T10:57:53.758Z,64.30
2018-07-01T10:58:59.168Z,65.10
2018-07-01T11:00:04.793Z,64.60
2018-07-01T11:02:15.733Z,62.50
2018-07-01T11:03:21.160Z,62.80
2018-07-01T11:04:26.607Z,63.50
2018-07-01T11:05:32.180Z,63.40
2018-07-01T11:06:37.701Z,63.30
2018-07-01T11:07:43.542Z,62.80
2018-07-01T11:08:48.943Z,61.00
2018-07-01T11:09:54.433Z,60.00
2018-07-01T11:10:59.820Z,61.30
2018-07-01T11:12:05.217Z,62.40
2018-07-01T11:14:15.749Z,62.10
2018-07-01T11:15:21.244Z,60.90
2018-07-01T11:16:26.673Z,61.40
2018-07-01T11:17:32.048Z,61.40
2018-07-01T11:18:37.584Z,61.50
2018-07-01T11:19:42.997Z,62.00
2018-07-01T11:20:48.429Z,61.30
2018-07-01T11:21:53.829Z,61.90
2018-07-01T11:22:59.389Z,61.40
2018-07-01T11:24:04.972Z,59.30
2018-07-01T11:25:10.420Z,60.30
2018-07-01T11:26:15.817Z,60.00
2018-07-01T11:27:21.413Z,60.00
2018-07-01T11:28:26.839Z,60.40
2018-07-01T11:29:32.290Z,59.90
2018-07-01T11:30:37.690Z,59.20
2018-07-01T11:31:43.113Z,58.80
2018-07-01T11:32:48.535Z,58.80
2018-07-01T11:33:53.994Z,60.40
2018-07-01T11:34:59.418Z,59.40
2018-07-01T11:36:05.311Z,58.60
2018-07-01T11:37:10.815Z,58.50
2018-07-01T11:38:16.545Z,58.80
2018-07-01T11:39:21.974Z,58.90
2018-07-01T11:40:27.348Z,58.70
2018-07-01T11:41:32.737Z,58.40
2018-07-01T11:42:38.218Z,57.70
2018-07-01T11:43:43.664Z,57.60
2018-07-01T11:44:49.110Z,57.90
2018-07-01T11:45:54.551Z,57.80
2018-07-01T11:46:59.999Z,57.70
2018-07-01T11:48:05.729Z,57.50
2018-07-01T11:49:11.280Z,57.70
2018-07-01T11:50:16.781Z,58.60
2018-07-01T11:51:24.399Z,59.60
2018-07-01T11:52:29.888Z,58.80
2018-07-01T11:53:35.249Z,59.20
2018-07-01T11:54:40.665Z,58.40
2018-07-01T11:56:51.287Z,58.60
2018-07-01T11:57:56.948Z,57.60
2018-07-01T11:59:02.358Z,57.10
2018-07-01T12:00:08.258Z,58.00
2018-07-01T12:01:13.621Z,57.30
2018-07-01T12:02:19.196Z,57.20
2018-07-01T12:03:24.582Z,57.30
2018-07-01T12:04:30.049Z,56.90
2018-07-01T12:05:35.555Z,56.90
2018-07-01T12:06:40.947Z,58.30
2018-07-01T12:07:46.345Z,58.00
2018-07-01T12:08:51.778Z,57.40
2018-07-01T12:09:57.741Z,57.60
2018-07-01T12:11:03.192Z,58.30
2018-07-01T12:12:08.631Z,57.60
2018-07-01T12:13:14.116Z,57.50
2018-07-01T12:14:19.564Z,57.80
2018-07-01T12:15:25.392Z,58.50
2018-07-01T12:16:30.779Z,58.10
2018-07-01T12:17:36.413Z,57.30
2018-07-01T12:18:41.884Z,56.90
2018-07-01T12:19:47.406Z,56.50
2018-07-01T12:21:58.345Z,57.60
2018-07-01T12:23:03.914Z,58.60
2018-07-01T12:24:09.336Z,57.70
2018-07-01T12:25:15.115Z,57.90
2018-07-01T12:26:20.546Z,57.90
2018-07-01T12:27:25.926Z,57.60
2018-07-01T12:28:31.835Z,57.00
2018-07-01T12:29:37.254Z,56.10
2018-07-01T12:30:42.671Z,56.40
2018-07-01T12:31:48.289Z,56.70
2018-07-01T12:33:58.913Z,56.60
2018-07-01T12:35:04.690Z,57.40
2018-07-01T12:36:10.110Z,56.10
2018-07-01T12:37:15.541Z,55.70
2018-07-01T12:38:21.000Z,56.00
2018-07-01T12:39:26.445Z,55.60
2018-07-01T12:40:31.853Z,56.70
2018-07-01T12:41:37.280Z,57.90
2018-07-01T12:42:42.736Z,57.60
2018-07-01T12:43:48.186Z,56.60
2018-07-01T12:44:53.740Z,55.60
2018-07-01T12:45:59.264Z,55.80
2018-07-01T12:47:04.736Z,55.80
2018-07-01T12:49:15.287Z,55.50
2018-07-01T12:50:20.871Z,55.80
2018-07-01T12:51:26.292Z,55.70
2018-07-01T12:52:31.887Z,57.30
2018-07-01T12:53:37.739Z,56.70
2018-07-01T12:54:43.148Z,57.10
2018-07-01T12:55:48.622Z,57.00
2018-07-01T12:56:54.064Z,56.60
2018-07-01T12:57:59.486Z,56.40
2018-07-01T12:59:05.323Z,55.80
2018-07-01T13:00:11.065Z,57.20
2018-07-01T13:01:16.528Z,57.40
2018-07-01T13:02:21.967Z,56.10
2018-07-01T13:03:27.397Z,56.70
2018-07-01T13:04:32.833Z,56.80
2018-07-01T13:05:38.237Z,55.80
2018-07-01T13:06:43.690Z,56.80
2018-07-01T13:07:49.302Z,55.70
2018-07-01T13:08:54.701Z,55.70
2018-07-01T13:10:00.173Z,55.30
2018-07-01T13:11:05.871Z,56.00
2018-07-01T13:12:11.367Z,55.60
2018-07-01T13:13:16.805Z,55.10
2018-07-01T13:14:22.238Z,55.40
2018-07-01T13:15:27.850Z,55.90
2018-07-01T13:16:33.294Z,56.70
2018-07-01T13:17:38.730Z,56.70
2018-07-01T13:18:44.197Z,56.00
2018-07-01T13:19:49.632Z,55.70
2018-07-01T13:20:55.485Z,56.60
2018-07-01T13:22:01.087Z,56.30
2018-07-01T13:23:06.769Z,55.30
2018-07-01T13:24:12.304Z,55.00
2018-07-01T13:25:17.762Z,55.10
2018-07-01T13:26:23.572Z,55.60
2018-07-01T13:27:29.013Z,55.80
2018-07-01T13:28:37.237Z,55.70
2018-07-01T13:29:43.528Z,56.30
2018-07-01T13:30:48.914Z,56.10
2018-07-01T13:31:54.650Z,56.20
2018-07-01T13:33:00.146Z,56.00
2018-07-01T13:34:05.605Z,56.20
2018-07-01T13:35:11.045Z,56.20
2018-07-01T13:36:16.933Z,55.60
2018-07-01T13:37:22.333Z,55.20
2018-07-01T13:38:31.811Z,55.10
2018-07-01T13:39:37.272Z,55.30
2018-07-01T13:40:42.721Z,55.90
2018-07-01T13:41:48.150Z,55.40
2018-07-01T13:42:53.661Z,55.00
2018-07-01T13:43:58.973Z,55.30
2018-07-01T13:45:05.019Z,55.70
2018-07-01T13:46:10.453Z,55.60
2018-07-01T13:48:21.282Z,55.80
2018-07-01T13:49:26.708Z,56.50
2018-07-01T13:50:32.214Z,56.30
2018-07-01T13:51:37.620Z,55.40
2018-07-01T13:52:43.156Z,56.00
2018-07-01T13:53:50.326Z,56.10
2018-07-01T13:54:55.993Z,56.40
2018-07-01T13:56:02.571Z,56.70
2018-07-01T13:57:08.866Z,56.00
2018-07-01T13:58:14.312Z,54.80
2018-07-01T13:59:19.806Z,55.10
2018-07-01T14:01:30.313Z,55.70
2018-07-01T14:02:35.733Z,55.40
2018-07-01T14:03:41.186Z,56.30
2018-07-01T14:04:46.673Z,56.20
2018-07-01T14:05:52.245Z,57.10
2018-07-01T14:08:02.873Z,56.90
2018-07-01T14:09:11.377Z,56.20
2018-07-01T14:10:16.815Z,55.80
2018-07-01T14:11:22.193Z,56.00
2018-07-01T14:12:28.017Z,56.50
2018-07-01T14:13:33.644Z,55.90
2018-07-01T14:14:39.140Z,55.70
2018-07-01T14:15:44.561Z,55.90
2018-07-01T14:16:50.001Z,56.20
2018-07-01T14:17:55.424Z,55.80
2018-07-01T14:19:00.838Z,55.10
2018-07-01T14:20:09.312Z,55.20
2018-07-01T14:21:14.798Z,55.70
2018-07-01T14:22:20.770Z,56.90
2018-07-01T14:23:26.205Z,56.20
2018-07-01T14:24:31.596Z,56.00
2018-07-01T14:26:42.039Z,55.80
2018-07-01T14:27:47.457Z,55.10